Time;durP1;ratioP1;P1;durP2;ratioP2;P2;SDS_P1;SDS_P2;PMS_P1;PMS_P2;Temp;Humidity;BMP_temperature;BMP_pressure;BME280_temperature;BME280_humidity;BME280_pressure;Samples;Min_cycle;Max_cycle;Signal;HPM_P1;HPM_P2
2023/10/07 00:03:21;;;;;;;3.20;1.55;;;;;;;4.51;69.44;98890.59;4900165;29;20055;-93
2023/10/07 00:06:17;;;;;;;2.45;1.27;;;;;;;3.93;69.00;98796.63;4895212;29;20036;-93
2023/10/07 00:08:45;;;;;;;4.18;1.60;;;;;;;4.04;69.23;98820.88;4887976;29;20029;-95
2023/10/07 00:11:16;;;;;;;4.10;1.73;;;;;;;4.10;69.19;98819.75;4906491;29;20041;-92
2023/10/07 00:13:48;;;;;;;1.95;1.45;;;;;;;4.04;69.35;98810.06;4888452;29;20027;-93
2023/10/07 00:16:17;;;;;;;4.32;1.70;;;;;;;4.13;69.72;98836.22;4884784;29;20053;-92
2023/10/07 00:18:55;;;;;;;7.00;1.70;;;;;;;4.03;69.09;98809.25;4889020;29;20068;-93
2023/10/07 00:21:44;;;;;;;5.13;1.70;;;;;;;4.07;69.68;98806.78;4888986;29;20017;-93
2023/10/07 00:24:16;;;;;;;7.18;1.77;;;;;;;4.42;68.72;98866.03;4888718;29;20101;-91
2023/10/07 00:26:47;;;;;;;4.03;1.83;;;;;;;4.12;69.40;98812.19;4863902;29;20044;-94
2023/10/07 00:29:54;;;;;;;4.90;1.50;;;;;;;4.07;69.26;98804.09;4895288;29;20073;-94
2023/10/07 00:32:27;;;;;;;3.45;1.70;;;;;;;4.21;69.68;98819.41;4864656;29;20049;-93
2023/10/07 00:35:07;;;;;;;6.15;1.88;;;;;;;4.40;69.90;98845.75;4881909;29;20064;-94
2023/10/07 00:37:52;;;;;;;2.78;1.50;;;;;;;4.41;69.92;98859.03;4867484;29;20036;-93
2023/10/07 00:40:31;;;;;;;3.90;1.98;;;;;;;4.33;69.54;98837.97;4864852;29;20036;-93
2023/10/07 00:42:58;;;;;;;6.30;1.73;;;;;;;4.40;69.67;98848.47;4881290;29;20423;-92
2023/10/07 00:45:34;;;;;;;6.70;1.58;;;;;;;4.25;69.98;98830.47;4883225;29;20080;-93
2023/10/07 00:48:04;;;;;;;3.28;1.60;;;;;;;4.03;69.47;98790.31;4892141;29;20144;-93
2023/10/07 00:50:42;;;;;;;7.25;1.95;;;;;;;3.98;69.60;98784.97;4893159;29;20045;-93
2023/10/07 00:53:12;;;;;;;5.10;2.25;;;;;;;4.02;70.01;98794.13;4871525;29;20025;-94
2023/10/07 00:55:41;;;;;;;6.40;2.17;;;;;;;4.23;70.26;98819.91;4880006;29;20072;-93
2023/10/07 00:58:17;;;;;;;5.53;1.70;;;;;;;3.94;70.15;98790.16;4863600;29;20055;-93
2023/10/07 01:00:55;;;;;;;3.35;2.05;;;;;;;4.24;70.25;98823.44;4899033;29;20032;-94
2023/10/07 01:08:27;;;;;;;;;;;;;;;4.41;70.20;98834.66;4896812;29;20047;-92
2023/10/07 01:11:19;;;;;;;3.78;1.65;;;;;;;4.28;70.22;98819.09;4892743;29;19931;-92
2023/10/07 01:13:56;;;;;;;8.35;2.28;;;;;;;3.88;70.50;98756.13;4906462;29;20117;-92
2023/10/07 01:16:27;;;;;;;6.22;2.08;;;;;;;4.14;70.41;98780.22;4873172;29;20061;-93
2023/10/07 01:19:04;;;;;;;4.78;2.30;;;;;;;4.14;70.36;98774.81;4893696;29;20037;-92
2023/10/07 01:21:33;;;;;;;9.63;2.85;;;;;;;3.93;70.04;98739.03;4899388;29;20095;-92
2023/10/07 01:24:07;;;;;;;5.53;3.08;;;;;;;3.88;70.30;98736.38;4901131;29;20049;-93
2023/10/07 01:26:44;;;;;;;7.60;3.00;;;;;;;4.34;70.29;98806.28;4877359;29;20049;-93
2023/10/07 01:33:04;;;;;;;6.38;2.35;;;;;;;4.02;70.61;98766.28;4823056;29;20035;-91
2023/10/07 01:36:06;;;;;;;3.03;1.88;;;;;;;4.19;70.67;98802.63;4822460;29;20037;-94
2023/10/07 01:38:31;;;;;;;8.20;2.10;;;;;;;3.69;70.97;98726.25;4823607;29;20171;-92
2023/10/07 01:41:05;;;;;;;4.22;1.80;;;;;;;3.41;70.57;98706.19;4792168;29;20096;-92
2023/10/07 01:43:40;;;;;;;3.78;1.75;;;;;;;3.64;71.18;98729.00;4823654;29;20148;-91
2023/10/07 01:46:28;;;;;;;4.95;2.00;;;;;;;3.62;70.82;98722.25;4788239;29;20118;-93
2023/10/07 01:49:17;;;;;;;4.55;1.90;;;;;;;3.75;71.24;98718.91;4772496;29;20067;-93
2023/10/07 01:52:07;;;;;;;6.50;2.38;;;;;;;3.93;70.69;98760.66;4770875;30;20051;-93
2023/10/07 01:54:41;;;;;;;5.35;2.00;;;;;;;4.10;70.65;98790.00;4781529;29;20071;-92
2023/10/07 01:57:17;;;;;;;8.30;1.98;;;;;;;4.04;70.59;98777.59;4768610;30;20056;-93
2023/10/07 01:59:45;;;;;;;4.65;1.90;;;;;;;3.58;70.65;98708.50;4769454;29;20156;-94
2023/10/07 02:02:25;;;;;;;5.45;1.85;;;;;;;3.48;70.75;98686.97;4810477;29;20047;-94
2023/10/07 02:05:59;;;;;;;7.53;1.90;;;;;;;3.90;71.19;98767.44;4774386;30;20101;-92
2023/10/07 02:08:29;;;;;;;3.92;2.20;;;;;;;3.46;71.28;98695.34;4750433;29;20078;-93
2023/10/07 02:11:05;;;;;;;7.75;2.25;;;;;;;3.73;71.16;98729.19;4789207;29;20039;-94
2023/10/07 02:13:45;;;;;;;6.60;2.40;;;;;;;3.91;70.66;98758.25;4805750;29;20035;-92
2023/10/07 02:16:12;;;;;;;5.68;2.30;;;;;;;3.93;70.92;98758.75;4809046;29;20062;-93
2023/10/07 02:18:47;;;;;;;4.30;2.00;;;;;;;3.91;70.66;98749.34;4825224;29;20050;-95
2023/10/07 02:21:20;;;;;;;7.90;2.47;;;;;;;3.50;70.93;98693.69;4788730;29;20059;-93
2023/10/07 02:23:47;;;;;;;9.13;2.53;;;;;;;3.63;71.28;98730.06;4789235;29;20031;-93
2023/10/07 02:28:50;;;;;;;9.73;2.20;;;;;;;2.96;71.24;98635.19;4788877;29;20066;-94
2023/10/07 02:31:33;;;;;;;7.45;2.90;;;;;;;3.75;71.32;98756.75;4793025;29;20062;-93
2023/10/07 02:34:08;;;;;;;9.60;3.55;;;;;;;3.33;71.59;98671.66;4792140;29;20055;-93
2023/10/07 02:37:38;;;;;;;8.63;3.20;;;;;;;3.56;71.19;98717.97;4830523;29;20057;-94
2023/10/07 02:40:59;;;;;;;6.45;2.88;;;;;;;3.18;71.66;98671.75;4849351;29;20096;-93
2023/10/07 02:43:34;;;;;;;4.57;2.17;;;;;;;3.61;71.35;98732.28;4831779;29;20105;-93
2023/10/07 02:46:32;;;;;;;5.05;2.38;;;;;;;3.64;71.45;98744.41;4833223;29;20056;-93
2023/10/07 02:49:15;;;;;;;5.05;2.20;;;;;;;3.56;71.54;98728.78;4830897;29;20038;-94
2023/10/07 02:51:52;;;;;;;4.53;2.15;;;;;;;3.15;71.40;98662.34;4826024;29;20066;-92
2023/10/07 02:54:20;;;;;;;3.83;1.95;;;;;;;3.63;71.57;98727.38;4827501;29;20059;-93
2023/10/07 02:56:54;;;;;;;6.30;2.22;;;;;;;3.19;71.30;98651.78;4798548;29;20026;-93
2023/10/07 02:59:50;;;;;;;3.88;2.05;;;;;;;3.10;70.98;98640.75;4842665;29;20058;-94
2023/10/07 03:08:02;;;;;;;3.88;2.47;;;;;;;2.74;71.61;98638.28;4864076;29;19928;-94
2023/10/07 03:14:13;;;;;;;7.72;2.05;;;;;;;2.86;71.78;98643.34;4805397;29;20154;-94
2023/10/07 03:16:46;;;;;;;5.93;2.45;;;;;;;2.58;71.90;98594.41;4807895;29;20066;-93
2023/10/07 03:19:21;;;;;;;5.38;2.53;;;;;;;2.68;71.93;98584.59;4812700;29;20082;-94
2023/10/07 03:22:09;;;;;;;5.63;2.60;;;;;;;3.16;71.41;98636.16;4810181;29;20035;-93
2023/10/07 03:24:42;;;;;;;10.38;2.30;;;;;;;3.06;71.22;98615.41;4804403;29;20137;-91
2023/10/07 03:27:11;;;;;;;3.80;2.13;;;;;;;2.96;71.24;98578.50;4790729;29;20039;-94
2023/10/07 03:30:15;;;;;;;4.32;2.20;;;;;;;2.88;71.22;98554.81;4811020;29;20055;-92
2023/10/07 03:32:54;;;;;;;5.35;1.95;;;;;;;3.06;70.48;98581.13;4821999;29;20055;-93
2023/10/07 03:35:35;;;;;;;3.42;2.13;;;;;;;3.52;70.99;98645.59;4810300;29;20092;-92
2023/10/07 03:38:08;;;;;;;9.07;1.90;;;;;;;3.27;70.79;98591.75;4825473;29;20050;-93
2023/10/07 03:40:36;;;;;;;4.82;2.20;;;;;;;3.40;70.84;98596.50;4825668;29;20054;-91
2023/10/07 03:43:02;;;;;;;11.38;3.00;;;;;;;3.61;70.59;98604.44;4827991;29;20172;-92
2023/10/07 03:45:48;;;;;;;4.03;2.13;;;;;;;3.11;70.21;98539.75;4813298;29;20030;-93
2023/10/07 03:48:24;;;;;;;;;;;;;;;3.78;70.14;98621.03;4847499;29;20046;-92
2023/10/07 03:51:05;;;;;;;5.30;2.20;;;;;;;3.57;70.52;98584.47;4893769;29;19935;-92
2023/10/07 03:53:45;;;;;;;11.40;2.50;;;;;;;3.31;70.54;98538.78;4882650;29;20048;-92
2023/10/07 03:56:14;;;;;;;7.97;2.03;;;;;;;3.64;70.32;98577.66;4880097;29;20056;-91
2023/10/07 03:58:55;;;;;;;6.82;2.05;;;;;;;3.45;70.49;98541.63;4893540;29;20056;-92
2023/10/07 04:01:26;;;;;;;3.35;1.95;;;;;;;3.47;70.07;98524.03;4864236;29;20052;-92
2023/10/07 04:03:52;;;;;;;3.53;1.77;;;;;;;3.96;69.85;98585.16;4883751;29;20045;-94
2023/10/07 04:06:30;;;;;;;5.20;1.90;;;;;;;3.88;69.88;98557.94;4884067;29;20045;-91
2023/10/07 04:09:05;;;;;;;12.98;2.00;;;;;;;3.67;69.90;98541.13;4875745;29;20025;-90
2023/10/07 04:11:38;;;;;;;7.70;2.50;;;;;;;3.65;69.60;98529.81;4899493;29;20048;-94
2023/10/07 04:14:31;;;;;;;5.53;2.25;;;;;;;4.04;69.41;98574.78;4869712;29;20025;-92
2023/10/07 04:17:11;;;;;;;7.57;1.83;;;;;;;3.94;69.66;98554.06;4883831;29;20033;-92
2023/10/07 04:20:24;;;;;;;9.95;2.97;;;;;;;4.04;69.84;98564.81;4900599;29;20110;-93
2023/10/07 04:23:12;;;;;;;5.57;2.33;;;;;;;3.92;69.90;98543.56;4902738;29;20056;-90
2023/10/07 04:25:44;;;;;;;6.50;2.05;;;;;;;3.90;69.70;98534.13;4886531;29;20025;-92
2023/10/07 04:28:53;;;;;;;8.88;3.97;;;;;;;3.82;69.78;98515.84;4902363;29;20049;-94
2023/10/07 04:31:51;;;;;;;18.92;6.13;;;;;;;3.74;69.79;98498.34;4881626;29;20511;-92
2023/10/07 04:34:19;;;;;;;14.32;2.78;;;;;;;3.82;69.93;98497.72;4864156;29;20044;-91
2023/10/07 04:46:55;;;;;;;10.73;2.70;;;;;;;4.08;69.11;98464.97;4832643;29;20076;-91
2023/10/07 04:52:52;;;;;;;9.32;2.35;;;;;;;4.53;68.98;98489.75;4831460;29;20092;-92
2023/10/07 04:55:45;;;;;;;12.55;2.83;;;;;;;4.32;68.63;98454.06;4815139;29;20030;-93
2023/10/07 04:58:15;;;;;;;9.80;3.85;;;;;;;4.56;68.66;98481.03;4837528;29;20043;-90
2023/10/07 05:01:04;;;;;;;19.90;4.63;;;;;;;4.42;68.49;98453.91;4833934;29;20030;-92
2023/10/07 05:03:36;;;;;;;15.57;5.45;;;;;;;4.38;68.58;98440.19;4848383;29;20026;-93
2023/10/07 05:06:07;;;;;;;16.27;4.60;;;;;;;4.34;68.19;98422.94;4821657;29;20543;-92
2023/10/07 05:08:34;;;;;;;13.32;4.45;;;;;;;4.24;68.58;98409.56;4813926;29;20103;-91
2023/10/07 05:11:26;;;;;;;13.98;4.50;;;;;;;4.20;68.48;98378.75;4832252;29;20038;-92
2023/10/07 05:13:55;;;;;;;16.02;5.05;;;;;;;4.55;68.60;98419.91;4847515;29;20033;-92
2023/10/07 05:16:59;;;;;;;8.27;3.40;;;;;;;4.42;67.78;98389.78;4864677;29;20114;-93
2023/10/07 05:19:58;;;;;;;11.38;4.45;;;;;;;4.35;67.80;98373.13;4857100;29;20033;-91
2023/10/07 05:23:28;;;;;;;11.15;3.50;;;;;;;4.74;68.44;98423.38;4863653;29;20062;-91
2023/10/07 05:26:33;;;;;;;19.98;3.80;;;;;;;4.63;68.22;98403.78;4831872;29;20170;-92
2023/10/07 05:29:24;;;;;;;5.68;3.03;;;;;;;4.01;67.48;98273.34;4849152;29;20095;-92
2023/10/07 05:32:26;;;;;;;10.07;3.08;;;;;;;4.10;67.68;98300.50;4839103;29;20145;-92
2023/10/07 05:35:21;;;;;;;4.90;2.90;;;;;;;4.48;67.70;98337.19;4821030;29;20041;-92
2023/10/07 05:38:38;;;;;;;10.73;3.80;;;;;;;4.85;67.46;98376.06;4829539;29;20110;-93
2023/10/07 05:41:12;;;;;;;10.18;4.28;;;;;;;4.83;67.14;98367.41;4812991;29;20046;-91
2023/10/07 05:43:51;;;;;;;9.38;3.90;;;;;;;4.67;67.39;98356.09;4811342;29;20039;-92
2023/10/07 05:46:22;;;;;;;15.75;5.18;;;;;;;4.57;67.34;98356.25;4837673;29;20110;-92
2023/10/07 05:48:59;;;;;;;12.40;4.57;;;;;;;4.50;67.39;98309.00;4861696;29;20078;-92
2023/10/07 05:51:44;;;;;;;8.68;4.35;;;;;;;4.26;67.20;98245.03;4802789;29;20035;-93
2023/10/07 05:54:12;;;;;;;10.70;5.63;;;;;;;4.88;67.32;98320.50;4830133;29;20042;-93
2023/10/07 05:56:41;;;;;;;13.88;5.53;;;;;;;4.88;67.43;98299.66;4871035;29;20049;-93
2023/10/07 05:59:11;;;;;;;13.50;5.78;;;;;;;4.74;67.21;98252.81;4866568;29;20042;-91
2023/10/07 06:01:47;;;;;;;13.27;6.35;;;;;;;5.11;66.37;98297.03;4819912;29;20041;-92
2023/10/07 06:04:15;;;;;;;17.55;5.82;;;;;;;4.89;66.10;98255.22;4824278;29;20037;-91
2023/10/07 06:07:02;;;;;;;14.02;6.07;;;;;;;5.11;66.36;98283.50;4808490;29;20030;-92
2023/10/07 06:09:51;;;;;;;14.55;4.93;;;;;;;5.08;66.26;98274.06;4853163;29;20038;-89
2023/10/07 06:12:21;;;;;;;11.63;5.18;;;;;;;4.87;66.43;98226.84;4852682;29;20046;-90
2023/10/07 06:14:54;;;;;;;21.33;6.95;;;;;;;5.16;65.66;98248.16;4817645;29;20145;-89
2023/10/07 06:17:21;;;;;;;12.05;5.22;;;;;;;4.64;65.35;98163.72;4802167;29;20074;-91
2023/10/07 06:19:58;;;;;;;9.32;4.20;;;;;;;5.15;65.63;98231.13;4827672;29;20081;-93
2023/10/07 06:22:33;;;;;;;8.13;3.88;;;;;;;5.16;65.31;98230.00;4865876;29;20121;-91
2023/10/07 06:25:04;;;;;;;12.70;3.42;;;;;;;5.15;64.92;98214.84;4823171;29;20062;-92
2023/10/07 06:27:37;;;;;;;12.40;3.40;;;;;;;5.01;65.08;98170.75;4855915;23;20073;-93
2023/10/07 06:30:27;;;;;;;6.05;3.17;;;;;;;4.95;65.15;98137.56;4819852;29;20038;-93
2023/10/07 06:33:13;;;;;;;5.20;2.70;;;;;;;5.19;64.72;98186.06;4831178;29;20046;-94
2023/10/07 06:36:04;;;;;;;11.13;3.20;;;;;;;4.85;64.32;98099.88;4851396;29;20053;-93
2023/10/07 06:38:52;;;;;;;12.15;3.55;;;;;;;5.41;64.28;98160.09;4820233;29;20628;-91
2023/10/07 15:12:52;;;;;;;7.60;4.03;;;;;;;9.95;87.45;96427.88;5414203;23;20068;-86
2023/10/07 15:15:24;;;;;;;6.05;4.05;;;;;;;10.03;87.52;96418.59;4871745;29;20116;-85
2023/10/07 15:17:50;;;;;;;5.22;3.47;;;;;;;10.02;86.82;96408.06;4881984;29;20040;-87
2023/10/07 15:20:25;;;;;;;8.90;4.20;;;;;;;9.64;86.96;96342.72;4902904;29;20510;-89
2023/10/07 15:22:54;;;;;;;5.35;3.90;;;;;;;9.63;86.68;96333.00;4884470;29;20048;-86
2023/10/07 15:25:27;;;;;;;9.02;4.53;;;;;;;9.77;87.31;96343.22;4888080;29;20075;-86
2023/10/07 15:27:53;;;;;;;5.18;3.40;;;;;;;10.12;87.54;96382.78;4888408;29;20104;-89
2023/10/07 15:30:19;;;;;;;4.88;3.28;;;;;;;10.04;87.06;96364.81;4869400;29;20047;-87
2023/10/07 15:32:45;;;;;;;8.43;3.88;;;;;;;9.97;87.39;96351.91;4894192;29;20521;-89
2023/10/07 15:35:12;;;;;;;11.00;6.38;;;;;;;9.85;87.54;96322.97;4856281;29;20060;-88
2023/10/07 15:37:41;;;;;;;6.47;3.90;;;;;;;10.10;87.42;96352.38;4867250;29;20104;-91
2023/10/07 15:40:08;;;;;;;7.88;3.40;;;;;;;9.68;87.92;96288.22;4867069;29;20388;-86
2023/10/07 15:42:38;;;;;;;13.63;3.25;;;;;;;10.10;88.42;96352.38;4901939;29;20045;-90
2023/10/07 15:45:04;;;;;;;5.63;3.58;;;;;;;9.73;88.54;96295.25;4903041;29;20536;-87
2023/10/07 15:47:31;;;;;;;6.82;3.47;;;;;;;9.84;88.73;96285.19;4885841;29;20079;-87
2023/10/07 15:49:58;;;;;;;12.45;6.28;;;;;;;10.09;88.64;96315.31;4865165;29;20128;-88
2023/10/07 15:52:27;;;;;;;6.93;4.10;;;;;;;9.79;88.35;96266.44;4885117;29;20044;-87
2023/10/07 15:54:56;;;;;;;6.75;4.25;;;;;;;10.04;88.49;96285.66;4884712;29;20044;-88
2023/10/07 15:57:26;;;;;;;8.38;3.70;;;;;;;10.22;88.79;96308.34;4887596;29;20109;-90
2023/10/07 15:59:53;;;;;;;6.07;3.80;;;;;;;10.02;88.72;96277.84;4905836;29;20036;-89
2023/10/07 16:02:26;;;;;;;9.30;4.72;;;;;;;10.31;89.05;96308.81;4875333;29;20042;-90
2023/10/07 16:05:04;;;;;;;6.45;4.68;;;;;;;9.89;88.58;96209.19;4872119;29;20064;-87
2023/10/07 16:07:30;;;;;;;6.53;4.20;;;;;;;10.20;88.34;96250.66;4880578;29;20088;-85
2023/10/07 16:09:59;;;;;;;6.57;4.30;;;;;;;10.46;88.16;96292.47;4901098;29;20101;-88
2023/10/07 16:12:32;;;;;;;7.43;4.00;;;;;;;10.30;88.33;96276.44;4881872;29;20067;-92
2023/10/07 16:15:01;;;;;;;6.13;4.13;;;;;;;10.39;88.80;96285.03;4888144;29;20063;-86
2023/10/07 16:17:27;;;;;;;4.95;3.60;;;;;;;10.23;88.71;96241.69;4884567;29;20546;-88
2023/10/07 16:19:53;;;;;;;6.50;3.83;;;;;;;10.16;89.09;96210.84;4888518;29;20068;-88
2023/10/07 16:22:23;;;;;;;5.73;3.80;;;;;;;10.44;88.61;96251.13;4901654;29;20048;-86
2023/10/07 16:24:56;;;;;;;5.43;3.87;;;;;;;10.32;88.75;96236.66;4890184;29;20147;-86
2023/10/07 16:27:24;;;;;;;6.68;4.00;;;;;;;10.33;88.80;96242.88;4890602;29;21064;-88
2023/10/07 16:29:50;;;;;;;7.82;4.00;;;;;;;10.15;89.48;96212.78;4909885;29;20052;-85
2023/10/07 16:32:18;;;;;;;6.60;4.00;;;;;;;10.53;89.55;96255.03;4910047;29;20048;-90
2023/10/07 16:34:47;;;;;;;10.20;4.07;;;;;;;10.60;89.82;96257.00;4914393;29;20466;-85
2023/10/07 16:37:14;;;;;;;6.43;3.80;;;;;;;10.28;89.59;96199.59;4894475;29;20045;-85
2023/10/07 16:39:41;;;;;;;7.20;3.95;;;;;;;10.47;89.59;96225.78;4899577;29;20045;-86
2023/10/07 16:42:07;;;;;;;6.32;3.72;;;;;;;10.36;89.91;96217.53;4901872;29;20048;-87
2023/10/07 16:44:33;;;;;;;6.60;4.45;;;;;;;10.40;90.30;96300.25;4894901;29;20068;-88
2023/10/07 16:46:59;;;;;;;12.18;3.00;;;;;;;10.24;92.95;96297.06;4886890;29;20067;-88
2023/10/07 16:49:26;;;;;;;2.45;1.73;;;;;;;10.21;88.40;96308.75;4896828;29;20036;-86
2023/10/07 16:51:52;;;;;;;2.83;1.63;;;;;;;9.93;86.44;96265.72;4882444;29;20546;-89
2023/10/07 16:54:18;;;;;;;2.35;1.70;;;;;;;10.15;83.77;96307.53;4895894;29;20052;-88
2023/10/07 16:56:46;;;;;;;3.97;1.70;;;;;;;10.04;83.81;96270.06;4886463;29;20068;-88
2023/10/07 16:59:13;;;;;;;3.35;1.70;;;;;;;10.05;83.56;96249.81;4895438;29;20052;-87
2023/10/07 17:01:41;;;;;;;2.83;1.48;;;;;;;9.71;83.19;96177.59;4870501;29;20084;-89
2023/10/07 17:04:10;;;;;;;3.60;1.73;;;;;;;9.99;82.56;96193.25;4884008;29;20044;-86
2023/10/07 17:06:37;;;;;;;3.42;1.52;;;;;;;10.09;80.25;96201.47;4899009;29;20049;-87
2023/10/07 17:09:05;;;;;;;3.08;1.55;;;;;;;10.16;83.14;96221.75;4901949;29;20092;-88
2023/10/07 17:11:31;;;;;;;5.43;2.45;;;;;;;9.82;83.46;96160.09;4904238;29;20040;-88
2023/10/07 17:13:57;;;;;;;5.57;2.90;;;;;;;10.05;83.97;96202.63;4849768;29;20044;-90
2023/10/07 17:16:23;;;;;;;7.07;3.13;;;;;;;9.75;83.65;96151.09;4878892;29;20521;-85
2023/10/07 17:18:50;;;;;;;4.57;2.97;;;;;;;9.97;83.19;96171.81;4860539;29;20144;-87
2023/10/07 17:21:19;;;;;;;7.97;2.80;;;;;;;9.97;83.66;96169.09;4861700;29;20048;-86
2023/10/07 17:23:45;;;;;;;7.63;3.20;;;;;;;9.91;83.09;96159.72;4900015;29;20045;-89
2023/10/07 17:26:12;;;;;;;5.63;3.37;;;;;;;10.12;83.42;96203.44;4848423;29;20522;-86
2023/10/07 17:28:43;;;;;;;7.93;3.20;;;;;;;10.15;83.65;96203.84;4878236;29;20502;-88
2023/10/07 17:31:10;;;;;;;5.68;3.13;;;;;;;10.02;83.41;96196.00;4877146;29;20082;-87
2023/10/07 17:33:38;;;;;;;6.47;3.45;;;;;;;9.82;83.66;96170.22;4889559;29;20044;-86
2023/10/07 17:36:05;;;;;;;9.98;4.00;;;;;;;10.02;84.17;96203.41;4884843;29;20050;-88
2023/10/07 17:38:31;;;;;;;;;;;;;;;10.10;84.27;96207.72;4894731;29;20051;-88
2023/10/07 17:41:00;;;;;;;9.60;4.47;;;;;;;9.92;84.20;96179.59;4870147;29;19991;-86
2023/10/07 17:43:31;;;;;;;9.10;3.83;;;;;;;9.92;84.24;96183.09;4872625;29;20049;-87
2023/10/07 17:45:58;;;;;;;7.30;3.58;;;;;;;9.99;84.33;96198.72;4867022;29;20491;-88
2023/10/07 17:48:25;;;;;;;6.90;4.43;;;;;;;9.86;84.81;96171.78;4884182;29;20152;-88
2023/10/07 17:50:52;;;;;;;8.63;3.60;;;;;;;9.78;85.05;96153.84;4891053;29;20080;-87
2023/10/07 17:53:23;;;;;;;5.78;3.00;;;;;;;9.86;85.19;96158.13;4875754;29;20057;-89
2023/10/07 17:55:53;;;;;;;6.85;3.53;;;;;;;10.11;84.95;96187.44;4896881;29;20127;-88
2023/10/07 17:58:27;;;;;;;6.78;3.17;;;;;;;9.89;85.40;96142.94;4908440;29;20095;-87
2023/10/07 18:00:55;;;;;;;7.88;3.40;;;;;;;9.86;85.42;96144.50;4905067;29;20515;-88
2023/10/07 18:03:23;;;;;;;9.82;3.85;;;;;;;10.07;85.53;96175.75;4872524;29;20257;-87
2023/10/07 18:05:50;;;;;;;11.80;4.05;;;;;;;9.68;85.67;96123.81;4861806;29;20073;-89
2023/10/07 18:08:20;;;;;;;9.13;4.35;;;;;;;9.93;85.92;96168.28;4905382;29;20415;-88
2023/10/07 18:10:47;;;;;;;8.18;3.42;;;;;;;9.89;86.31;96168.28;4906834;29;20100;-86
2023/10/07 18:13:14;;;;;;;9.17;3.00;;;;;;;9.86;86.61;96169.03;4903485;29;20048;-87
2023/10/07 18:15:46;;;;;;;4.93;2.97;;;;;;;9.88;87.01;96176.88;4903113;29;20044;-86
2023/10/07 18:18:15;;;;;;;8.40;2.88;;;;;;;9.74;87.02;96144.09;4889959;29;20493;-89
2023/10/07 18:21:00;;;;;;;;;;;;;;;10.17;86.95;96210.47;4906169;29;20093;-91
2023/10/07 18:23:30;;;;;;;8.52;2.72;;;;;;;9.69;86.74;96134.31;4896655;29;19920;-88
2023/10/07 18:25:59;;;;;;;7.05;2.97;;;;;;;9.72;86.47;96147.19;4906737;29;20048;-84
2023/10/07 18:28:25;;;;;;;4.38;2.38;;;;;;;10.02;85.84;96179.63;4905311;29;20060;-88
2023/10/07 18:30:52;;;;;;;5.45;2.13;;;;;;;9.99;86.20;96172.22;4934577;29;20522;-87
2023/10/07 18:33:18;;;;;;;4.32;2.30;;;;;;;10.00;85.83;96173.78;4902129;29;21370;-87
2023/10/07 18:35:48;;;;;;;4.63;2.30;;;;;;;10.07;85.11;96182.00;4885605;29;20047;-86
2023/10/07 18:38:14;;;;;;;4.00;2.42;;;;;;;10.31;84.64;96202.34;4903594;29;20135;-88
2023/10/07 18:40:41;;;;;;;6.93;2.55;;;;;;;10.09;84.27;96174.19;4903216;29;20076;-86
2023/10/07 18:43:10;;;;;;;7.53;2.10;;;;;;;9.74;84.58;96120.31;4891943;29;20072;-87
2023/10/07 18:45:38;;;;;;;3.47;2.20;;;;;;;10.03;84.04;96161.28;4904474;29;20040;-90
2023/10/07 18:48:16;;;;;;;6.53;2.20;;;;;;;10.01;83.93;96155.47;4868531;29;20081;-89
2023/10/07 18:50:42;;;;;;;2.67;1.80;;;;;;;10.01;83.38;96152.75;4896593;29;20498;-90
2023/10/07 18:53:10;;;;;;;6.82;2.42;;;;;;;10.19;83.01;96189.00;4886744;29;20048;-89
2023/10/07 18:55:37;;;;;;;7.95;2.22;;;;;;;10.14;82.10;96186.69;4866600;29;20697;-90
2023/10/07 18:58:05;;;;;;;5.40;1.67;;;;;;;10.19;81.94;96204.63;4835404;29;20060;-88
2023/10/07 19:00:32;;;;;;;2.95;1.83;;;;;;;10.09;82.53;96193.28;4863689;29;20113;-89
2023/10/07 19:03:07;;;;;;;2.05;1.42;;;;;;;10.21;81.86;96215.94;4845909;29;20082;-86
2023/10/07 19:05:41;;;;;;;4.95;1.90;;;;;;;10.27;81.89;96215.19;4863255;29;20053;-87
2023/10/07 19:08:23;;;;;;;5.88;1.63;;;;;;;10.30;80.65;96214.44;4834907;29;20055;-91
2023/10/07 19:10:52;;;;;;;2.97;1.85;;;;;;;10.15;81.04;96182.00;4866240;29;20056;-86
2023/10/07 19:13:19;;;;;;;3.47;2.00;;;;;;;9.97;80.77;96157.41;4848471;29;20065;-89
2023/10/07 19:16:13;;;;;;;7.30;2.78;;;;;;;10.39;80.20;96211.31;4819792;29;20049;-91
2023/10/07 19:18:42;;;;;;;7.97;2.25;;;;;;;10.12;79.22;96197.97;4838755;29;20041;-89
2023/10/07 19:21:33;;;;;;;3.72;1.50;;;;;;;10.29;77.25;96204.66;4843807;29;20082;-91
2023/10/07 19:47:27;;;;;;;3.55;1.30;;;;;;;9.21;74.30;96171.91;4882736;29;20053;-89
2023/10/07 19:49:55;;;;;;;6.28;1.65;;;;;;;9.21;74.10;96193.69;4837466;29;20068;-90
2023/10/07 19:57:23;;;;;;;6.75;1.10;;;;;;;9.29;72.78;96217.09;4790075;30;20650;-93
2023/10/07 20:00:44;;;;;;;5.32;1.25;;;;;;;9.57;71.45;96241.00;4767788;29;20035;-94
2023/10/07 20:03:37;;;;;;;3.80;1.10;;;;;;;9.44;70.58;96240.56;4834747;23;20063;-90
2023/10/07 20:06:26;;;;;;;1.42;1.05;;;;;;;9.56;71.06;96248.41;4878319;29;20084;-91
2023/10/07 20:08:59;;;;;;;;;;;;;;;9.49;71.34;96281.09;4889923;29;20091;-90
2023/10/07 20:12:04;;;;;;;2.55;1.05;;;;;;;9.23;70.90;96235.75;4896148;29;19931;-90
2023/10/07 20:14:34;;;;;;;4.13;1.00;;;;;;;8.86;71.32;96227.69;4862284;29;20033;-93
2023/10/07 20:17:03;;;;;;;1.83;1.02;;;;;;;9.01;72.36;96251.16;4874672;29;20061;-91
2023/10/07 20:19:33;;;;;;;;;;;;;;;9.24;73.02;96277.41;4850437;29;20100;-91
2023/10/07 20:22:07;;;;;;;1.02;0.95;;;;;;;9.08;73.03;96275.75;4895944;29;19928;-94
2023/10/07 20:24:47;;;;;;;1.08;0.98;;;;;;;8.76;71.93;96226.44;4890793;29;20083;-91
2023/10/07 20:27:39;;;;;;;4.68;1.10;;;;;;;8.27;71.13;96185.91;4866777;29;20060;-93
2023/10/07 20:30:37;;;;;;;2.40;1.10;;;;;;;9.00;69.72;96282.28;4882594;23;20051;-92
2023/10/07 20:33:46;;;;;;;1.58;1.00;;;;;;;8.77;69.11;96254.47;4932778;23;20079;-92
2023/10/07 20:36:17;;;;;;;0.95;0.90;;;;;;;8.66;68.61;96254.38;4880900;29;20055;-92
2023/10/07 20:42:21;;;;;;;0.85;0.77;;;;;;;8.60;66.19;96255.88;4919463;29;20067;-90
